sensor_id;sensor_type;location;lat;lon;timestamp;P1;durP1;ratioP1;P2;durP2;ratioP2
71562;SDS011;59391;52.504;13.438;2023-05-23T00:00:02;8.90;;;4.88;;
71562;SDS011;59391;52.504;13.438;2023-05-23T00:02:28;10.13;;;5.10;;
71562;SDS011;59391;52.504;13.438;2023-05-23T00:04:54;12.47;;;5.47;;
71562;SDS011;59391;52.504;13.438;2023-05-23T00:07:22;11.27;;;5.18;;
71562;SDS011;59391;52.504;13.438;2023-05-23T00:09:48;10.02;;;5.50;;
71562;SDS011;59391;52.504;13.438;2023-05-23T00:12:13;11.67;;;6.43;;
71562;SDS011;59391;52.504;13.438;2023-05-23T00:14:39;9.93;;;6.40;;
71562;SDS011;59391;52.504;13.438;2023-05-23T00:17:05;7.90;;;5.40;;
71562;SDS011;59391;52.504;13.438;2023-05-23T00:19:34;8.50;;;5.18;;
71562;SDS011;59391;52.504;13.438;2023-05-23T00:22:00;7.93;;;4.80;;
71562;SDS011;59391;52.504;13.438;2023-05-23T00:24:27;8.77;;;5.13;;
71562;SDS011;59391;52.504;13.438;2023-05-23T00:26:53;9.30;;;5.32;;
71562;SDS011;59391;52.504;13.438;2023-05-23T00:29:18;10.10;;;5.60;;
71562;SDS011;59391;52.504;13.438;2023-05-23T00:31:44;11.07;;;5.50;;
71562;SDS011;59391;52.504;13.438;2023-05-23T00:34:13;9.03;;;5.13;;
71562;SDS011;59391;52.504;13.438;2023-05-23T00:36:41;9.07;;;4.70;;
71562;SDS011;59391;52.504;13.438;2023-05-23T00:39:07;8.80;;;5.03;;
71562;SDS011;59391;52.504;13.438;2023-05-23T00:41:33;8.75;;;5.50;;
71562;SDS011;59391;52.504;13.438;2023-05-23T00:44:00;9.43;;;5.20;;
71562;SDS011;59391;52.504;13.438;2023-05-23T00:46:26;11.90;;;5.40;;
71562;SDS011;59391;52.504;13.438;2023-05-23T00:48:54;10.32;;;5.82;;
71562;SDS011;59391;52.504;13.438;2023-05-23T00:51:20;7.37;;;4.77;;
71562;SDS011;59391;52.504;13.438;2023-05-23T00:53:46;7.90;;;5.20;;
71562;SDS011;59391;52.504;13.438;2023-05-23T00:56:13;7.90;;;5.47;;
71562;SDS011;59391;52.504;13.438;2023-05-23T00:58:38;10.77;;;5.17;;
71562;SDS011;59391;52.504;13.438;2023-05-23T01:01:18;9.25;;;5.22;;
71562;SDS011;59391;52.504;13.438;2023-05-23T01:03:44;9.82;;;5.30;;
71562;SDS011;59391;52.504;13.438;2023-05-23T01:06:12;9.50;;;6.30;;
71562;SDS011;59391;52.504;13.438;2023-05-23T01:08:38;8.98;;;5.75;;
71562;SDS011;59391;52.504;13.438;2023-05-23T01:11:10;9.10;;;6.13;;
71562;SDS011;59391;52.504;13.438;2023-05-23T01:13:55;9.32;;;5.30;;
71562;SDS011;59391;52.504;13.438;2023-05-23T01:19:07;8.23;;;5.38;;
71562;SDS011;59391;52.504;13.438;2023-05-23T01:22:10;11.48;;;5.90;;
71562;SDS011;59391;52.504;13.438;2023-05-23T01:28:00;8.93;;;5.55;;
71562;SDS011;59391;52.504;13.438;2023-05-23T01:30:31;8.38;;;5.15;;
71562;SDS011;59391;52.504;13.438;2023-05-23T01:33:04;9.48;;;5.82;;
71562;SDS011;59391;52.504;13.438;2023-05-23T01:35:32;8.77;;;5.57;;
71562;SDS011;59391;52.504;13.438;2023-05-23T01:37:58;9.33;;;5.97;;
71562;SDS011;59391;52.504;13.438;2023-05-23T01:40:24;9.93;;;5.25;;
71562;SDS011;59391;52.504;13.438;2023-05-23T01:42:51;8.20;;;5.45;;
71562;SDS011;59391;52.504;13.438;2023-05-23T01:45:21;9.50;;;5.50;;
71562;SDS011;59391;52.504;13.438;2023-05-23T01:47:50;8.45;;;5.90;;
71562;SDS011;59391;52.504;13.438;2023-05-23T01:50:18;11.00;;;5.63;;
71562;SDS011;59391;52.504;13.438;2023-05-23T01:52:45;9.88;;;5.70;;
71562;SDS011;59391;52.504;13.438;2023-05-23T01:55:11;11.75;;;6.03;;
71562;SDS011;59391;52.504;13.438;2023-05-23T01:57:40;10.17;;;5.60;;
71562;SDS011;59391;52.504;13.438;2023-05-23T02:00:06;10.82;;;5.93;;
71562;SDS011;59391;52.504;13.438;2023-05-23T02:02:36;12.82;;;6.07;;
71562;SDS011;59391;52.504;13.438;2023-05-23T02:05:01;10.43;;;5.57;;
71562;SDS011;59391;52.504;13.438;2023-05-23T02:07:28;9.40;;;5.68;;
71562;SDS011;59391;52.504;13.438;2023-05-23T02:09:53;8.73;;;5.57;;
71562;SDS011;59391;52.504;13.438;2023-05-23T02:12:20;15.40;;;6.03;;
71562;SDS011;59391;52.504;13.438;2023-05-23T02:14:45;11.40;;;5.68;;
71562;SDS011;59391;52.504;13.438;2023-05-23T02:17:11;9.33;;;6.20;;
71562;SDS011;59391;52.504;13.438;2023-05-23T02:19:38;9.95;;;6.10;;
71562;SDS011;59391;52.504;13.438;2023-05-23T02:22:04;9.20;;;5.80;;
71562;SDS011;59391;52.504;13.438;2023-05-23T02:24:30;9.50;;;5.63;;
71562;SDS011;59391;52.504;13.438;2023-05-23T02:26:55;10.43;;;6.20;;
71562;SDS011;59391;52.504;13.438;2023-05-23T02:29:21;8.80;;;5.95;;
71562;SDS011;59391;52.504;13.438;2023-05-23T02:31:47;13.57;;;6.30;;
71562;SDS011;59391;52.504;13.438;2023-05-23T02:34:12;11.38;;;5.53;;
71562;SDS011;59391;52.504;13.438;2023-05-23T02:36:38;9.40;;;6.10;;
71562;SDS011;59391;52.504;13.438;2023-05-23T02:39:04;8.98;;;6.32;;
71562;SDS011;59391;52.504;13.438;2023-05-23T02:41:30;9.98;;;6.20;;
71562;SDS011;59391;52.504;13.438;2023-05-23T02:43:56;10.23;;;5.70;;
71562;SDS011;59391;52.504;13.438;2023-05-23T02:46:23;10.83;;;7.07;;
71562;SDS011;59391;52.504;13.438;2023-05-23T02:48:49;9.98;;;6.53;;
71562;SDS011;59391;52.504;13.438;2023-05-23T02:51:14;8.95;;;6.20;;
71562;SDS011;59391;52.504;13.438;2023-05-23T02:53:40;10.07;;;6.23;;
71562;SDS011;59391;52.504;13.438;2023-05-23T02:56:06;9.63;;;6.10;;
71562;SDS011;59391;52.504;13.438;2023-05-23T02:58:32;9.57;;;6.40;;
71562;SDS011;59391;52.504;13.438;2023-05-23T03:01:01;11.20;;;6.45;;
71562;SDS011;59391;52.504;13.438;2023-05-23T03:03:27;14.15;;;7.18;;
71562;SDS011;59391;52.504;13.438;2023-05-23T03:05:55;13.52;;;9.05;;
71562;SDS011;59391;52.504;13.438;2023-05-23T03:08:27;9.98;;;6.88;;
71562;SDS011;59391;52.504;13.438;2023-05-23T03:10:52;12.43;;;6.63;;
71562;SDS011;59391;52.504;13.438;2023-05-23T03:13:18;9.17;;;6.00;;
71562;SDS011;59391;52.504;13.438;2023-05-23T03:15:44;10.70;;;6.30;;
71562;SDS011;59391;52.504;13.438;2023-05-23T03:18:10;9.52;;;6.30;;
71562;SDS011;59391;52.504;13.438;2023-05-23T03:20:36;9.13;;;6.10;;
71562;SDS011;59391;52.504;13.438;2023-05-23T03:23:02;12.00;;;6.78;;
71562;SDS011;59391;52.504;13.438;2023-05-23T03:25:27;9.10;;;6.60;;
71562;SDS011;59391;52.504;13.438;2023-05-23T03:27:53;10.25;;;6.55;;
71562;SDS011;59391;52.504;13.438;2023-05-23T03:30:19;9.93;;;6.27;;
71562;SDS011;59391;52.504;13.438;2023-05-23T03:32:44;8.98;;;6.30;;
71562;SDS011;59391;52.504;13.438;2023-05-23T03:35:13;10.32;;;6.97;;
71562;SDS011;59391;52.504;13.438;2023-05-23T03:37:39;12.67;;;7.23;;
71562;SDS011;59391;52.504;13.438;2023-05-23T03:40:05;11.93;;;7.43;;
71562;SDS011;59391;52.504;13.438;2023-05-23T03:42:32;11.18;;;6.53;;
71562;SDS011;59391;52.504;13.438;2023-05-23T03:44:57;12.00;;;6.40;;
71562;SDS011;59391;52.504;13.438;2023-05-23T03:47:23;9.60;;;6.60;;
71562;SDS011;59391;52.504;13.438;2023-05-23T03:49:49;11.90;;;6.40;;
71562;SDS011;59391;52.504;13.438;2023-05-23T03:52:14;10.63;;;6.60;;
71562;SDS011;59391;52.504;13.438;2023-05-23T03:54:40;16.65;;;6.93;;
71562;SDS011;59391;52.504;13.438;2023-05-23T03:57:06;12.07;;;6.63;;
71562;SDS011;59391;52.504;13.438;2023-05-23T03:59:32;12.90;;;7.63;;
71562;SDS011;59391;52.504;13.438;2023-05-23T04:01:59;10.85;;;6.93;;
71562;SDS011;59391;52.504;13.438;2023-05-23T04:04:25;11.65;;;6.65;;
71562;SDS011;59391;52.504;13.438;2023-05-23T04:06:52;10.20;;;6.57;;
71562;SDS011;59391;52.504;13.438;2023-05-23T04:09:17;10.95;;;6.38;;
71562;SDS011;59391;52.504;13.438;2023-05-23T04:11:43;10.27;;;7.50;;
71562;SDS011;59391;52.504;13.438;2023-05-23T04:14:09;11.30;;;6.68;;
71562;SDS011;59391;52.504;13.438;2023-05-23T04:16:36;12.30;;;7.40;;
71562;SDS011;59391;52.504;13.438;2023-05-23T04:19:02;12.88;;;6.82;;
71562;SDS011;59391;52.504;13.438;2023-05-23T04:21:28;17.45;;;7.72;;
71562;SDS011;59391;52.504;13.438;2023-05-23T04:23:54;12.75;;;6.80;;
71562;SDS011;59391;52.504;13.438;2023-05-23T04:26:20;11.87;;;7.40;;
71562;SDS011;59391;52.504;13.438;2023-05-23T04:28:46;13.50;;;7.47;;
71562;SDS011;59391;52.504;13.438;2023-05-23T04:31:12;13.75;;;7.03;;
71562;SDS011;59391;52.504;13.438;2023-05-23T04:33:38;9.97;;;6.43;;
71562;SDS011;59391;52.504;13.438;2023-05-23T04:36:05;14.15;;;7.15;;
71562;SDS011;59391;52.504;13.438;2023-05-23T04:38:33;16.02;;;8.02;;
71562;SDS011;59391;52.504;13.438;2023-05-23T04:40:59;14.13;;;7.07;;
71562;SDS011;59391;52.504;13.438;2023-05-23T04:43:25;10.40;;;6.63;;
71562;SDS011;59391;52.504;13.438;2023-05-23T04:45:51;13.30;;;7.57;;
71562;SDS011;59391;52.504;13.438;2023-05-23T04:48:21;18.30;;;7.57;;
71562;SDS011;59391;52.504;13.438;2023-05-23T04:50:47;14.30;;;7.80;;
71562;SDS011;59391;52.504;13.438;2023-05-23T04:53:15;19.42;;;7.45;;
71562;SDS011;59391;52.504;13.438;2023-05-23T04:55:40;12.02;;;7.28;;
71562;SDS011;59391;52.504;13.438;2023-05-23T04:58:06;14.63;;;7.53;;
71562;SDS011;59391;52.504;13.438;2023-05-23T05:00:32;14.23;;;7.20;;
71562;SDS011;59391;52.504;13.438;2023-05-23T05:03:04;22.95;;;8.38;;
71562;SDS011;59391;52.504;13.438;2023-05-23T05:05:30;13.82;;;7.80;;
71562;SDS011;59391;52.504;13.438;2023-05-23T05:07:56;14.87;;;7.77;;
71562;SDS011;59391;52.504;13.438;2023-05-23T05:10:21;20.73;;;8.43;;
71562;SDS011;59391;52.504;13.438;2023-05-23T05:12:47;12.35;;;7.97;;
71562;SDS011;59391;52.504;13.438;2023-05-23T05:15:13;13.57;;;7.43;;
71562;SDS011;59391;52.504;13.438;2023-05-23T05:17:43;14.15;;;7.25;;
71562;SDS011;59391;52.504;13.438;2023-05-23T05:20:12;13.93;;;7.50;;
71562;SDS011;59391;52.504;13.438;2023-05-23T05:22:39;12.47;;;7.60;;
71562;SDS011;59391;52.504;13.438;2023-05-23T05:25:08;15.60;;;7.80;;
71562;SDS011;59391;52.504;13.438;2023-05-23T05:27:35;14.43;;;7.60;;
71562;SDS011;59391;52.504;13.438;2023-05-23T05:30:07;14.83;;;8.10;;
71562;SDS011;59391;52.504;13.438;2023-05-23T05:32:33;12.77;;;7.82;;
71562;SDS011;59391;52.504;13.438;2023-05-23T05:34:59;15.15;;;9.98;;
71562;SDS011;59391;52.504;13.438;2023-05-23T05:37:26;14.98;;;8.20;;
71562;SDS011;59391;52.504;13.438;2023-05-23T05:39:51;16.03;;;8.20;;
71562;SDS011;59391;52.504;13.438;2023-05-23T05:42:19;14.10;;;7.82;;
71562;SDS011;59391;52.504;13.438;2023-05-23T05:44:46;13.43;;;8.02;;
71562;SDS011;59391;52.504;13.438;2023-05-23T05:47:12;14.60;;;7.63;;
71562;SDS011;59391;52.504;13.438;2023-05-23T05:49:38;13.18;;;8.30;;
71562;SDS011;59391;52.504;13.438;2023-05-23T05:52:05;17.67;;;10.35;;
71562;SDS011;59391;52.504;13.438;2023-05-23T05:54:35;14.43;;;8.60;;
71562;SDS011;59391;52.504;13.438;2023-05-23T05:57:01;13.07;;;7.90;;
71562;SDS011;59391;52.504;13.438;2023-05-23T05:59:27;10.82;;;7.70;;
71562;SDS011;59391;52.504;13.438;2023-05-23T06:01:52;21.60;;;13.20;;
71562;SDS011;59391;52.504;13.438;2023-05-23T06:04:18;14.53;;;8.73;;
71562;SDS011;59391;52.504;13.438;2023-05-23T06:06:43;16.52;;;9.70;;
71562;SDS011;59391;52.504;13.438;2023-05-23T06:09:09;12.00;;;8.70;;
71562;SDS011;59391;52.504;13.438;2023-05-23T06:11:35;13.23;;;8.80;;
71562;SDS011;59391;52.504;13.438;2023-05-23T06:14:04;14.82;;;8.73;;
71562;SDS011;59391;52.504;13.438;2023-05-23T06:16:31;14.13;;;8.00;;
71562;SDS011;59391;52.504;13.438;2023-05-23T06:18:57;14.25;;;8.43;;
71562;SDS011;59391;52.504;13.438;2023-05-23T06:21:22;19.93;;;8.60;;
71562;SDS011;59391;52.504;13.438;2023-05-23T06:23:48;18.50;;;9.17;;
71562;SDS011;59391;52.504;13.438;2023-05-23T06:26:13;11.50;;;7.85;;
71562;SDS011;59391;52.504;13.438;2023-05-23T06:28:39;13.33;;;7.83;;
71562;SDS011;59391;52.504;13.438;2023-05-23T06:31:05;13.95;;;7.68;;
71562;SDS011;59391;52.504;13.438;2023-05-23T06:33:33;14.18;;;8.43;;
71562;SDS011;59391;52.504;13.438;2023-05-23T06:35:59;13.13;;;7.53;;
71562;SDS011;59391;52.504;13.438;2023-05-23T06:38:26;12.90;;;7.95;;
71562;SDS011;59391;52.504;13.438;2023-05-23T06:40:55;13.13;;;7.55;;
71562;SDS011;59391;52.504;13.438;2023-05-23T06:43:20;13.63;;;8.27;;
71562;SDS011;59391;52.504;13.438;2023-05-23T06:45:46;12.17;;;8.13;;
71562;SDS011;59391;52.504;13.438;2023-05-23T06:48:12;12.45;;;8.35;;
71562;SDS011;59391;52.504;13.438;2023-05-23T06:50:37;13.47;;;8.20;;
71562;SDS011;59391;52.504;13.438;2023-05-23T06:53:04;11.98;;;7.88;;
71562;SDS011;59391;52.504;13.438;2023-05-23T06:55:30;16.90;;;8.48;;
71562;SDS011;59391;52.504;13.438;2023-05-23T06:57:57;18.50;;;8.85;;
71562;SDS011;59391;52.504;13.438;2023-05-23T07:00:24;17.38;;;8.57;;
71562;SDS011;59391;52.504;13.438;2023-05-23T07:02:50;13.82;;;8.73;;
71562;SDS011;59391;52.504;13.438;2023-05-23T07:05:16;12.63;;;8.18;;
71562;SDS011;59391;52.504;13.438;2023-05-23T07:07:42;12.60;;;8.07;;
71562;SDS011;59391;52.504;13.438;2023-05-23T07:10:08;13.32;;;8.32;;
71562;SDS011;59391;52.504;13.438;2023-05-23T07:12:34;15.23;;;8.07;;
71562;SDS011;59391;52.504;13.438;2023-05-23T07:15:00;13.97;;;7.73;;
71562;SDS011;59391;52.504;13.438;2023-05-23T07:17:26;13.43;;;7.80;;
71562;SDS011;59391;52.504;13.438;2023-05-23T07:19:54;12.98;;;7.50;;
71562;SDS011;59391;52.504;13.438;2023-05-23T07:22:20;14.63;;;7.13;;
71562;SDS011;59391;52.504;13.438;2023-05-23T07:24:45;16.83;;;7.40;;
71562;SDS011;59391;52.504;13.438;2023-05-23T07:27:11;12.50;;;7.13;;
71562;SDS011;59391;52.504;13.438;2023-05-23T07:29:37;14.83;;;7.37;;
71562;SDS011;59391;52.504;13.438;2023-05-23T07:32:03;15.55;;;7.05;;
71562;SDS011;59391;52.504;13.438;2023-05-23T07:34:29;14.65;;;6.93;;
71562;SDS011;59391;52.504;13.438;2023-05-23T07:36:55;10.57;;;6.70;;
71562;SDS011;59391;52.504;13.438;2023-05-23T07:39:21;14.57;;;6.85;;
71562;SDS011;59391;52.504;13.438;2023-05-23T07:41:48;10.07;;;7.05;;
71562;SDS011;59391;52.504;13.438;2023-05-23T07:44:14;12.03;;;6.90;;
71562;SDS011;59391;52.504;13.438;2023-05-23T07:46:42;12.40;;;6.55;;
71562;SDS011;59391;52.504;13.438;2023-05-23T07:49:08;15.55;;;7.60;;
71562;SDS011;59391;52.504;13.438;2023-05-23T07:51:34;10.27;;;6.93;;
71562;SDS011;59391;52.504;13.438;2023-05-23T07:54:00;12.18;;;6.95;;
71562;SDS011;59391;52.504;13.438;2023-05-23T07:56:25;11.73;;;7.10;;
71562;SDS011;59391;52.504;13.438;2023-05-23T07:58:51;13.00;;;6.95;;
71562;SDS011;59391;52.504;13.438;2023-05-23T08:01:17;10.63;;;7.10;;
71562;SDS011;59391;52.504;13.438;2023-05-23T08:03:43;13.45;;;6.78;;
71562;SDS011;59391;52.504;13.438;2023-05-23T08:06:08;13.23;;;6.93;;
71562;SDS011;59391;52.504;13.438;2023-05-23T08:08:34;13.85;;;6.85;;
71562;SDS011;59391;52.504;13.438;2023-05-23T08:11:01;15.00;;;7.20;;
71562;SDS011;59391;52.504;13.438;2023-05-23T08:13:27;9.87;;;6.97;;
71562;SDS011;59391;52.504;13.438;2023-05-23T08:15:54;11.88;;;6.85;;
71562;SDS011;59391;52.504;13.438;2023-05-23T08:18:20;13.13;;;7.30;;
71562;SDS011;59391;52.504;13.438;2023-05-23T08:20:46;13.23;;;7.33;;
71562;SDS011;59391;52.504;13.438;2023-05-23T08:23:11;14.10;;;7.60;;
71562;SDS011;59391;52.504;13.438;2023-05-23T08:25:40;13.27;;;6.88;;
71562;SDS011;59391;52.504;13.438;2023-05-23T08:28:09;10.88;;;7.15;;
71562;SDS011;59391;52.504;13.438;2023-05-23T08:30:34;14.27;;;7.77;;
71562;SDS011;59391;52.504;13.438;2023-05-23T08:33:00;17.48;;;7.68;;
71562;SDS011;59391;52.504;13.438;2023-05-23T08:35:28;11.25;;;7.55;;
71562;SDS011;59391;52.504;13.438;2023-05-23T08:37:59;10.20;;;7.60;;
71562;SDS011;59391;52.504;13.438;2023-05-23T08:40:30;12.40;;;6.85;;
71562;SDS011;59391;52.504;13.438;2023-05-23T08:42:56;12.57;;;7.10;;
71562;SDS011;59391;52.504;13.438;2023-05-23T08:45:22;11.85;;;7.03;;
71562;SDS011;59391;52.504;13.438;2023-05-23T08:47:48;12.30;;;6.75;;
71562;SDS011;59391;52.504;13.438;2023-05-23T08:50:16;13.67;;;7.90;;
71562;SDS011;59391;52.504;13.438;2023-05-23T08:52:49;14.32;;;7.68;;
71562;SDS011;59391;52.504;13.438;2023-05-23T08:55:26;9.85;;;7.28;;
71562;SDS011;59391;52.504;13.438;2023-05-23T08:57:54;10.68;;;7.60;;
71562;SDS011;59391;52.504;13.438;2023-05-23T09:00:25;12.77;;;7.72;;
71562;SDS011;59391;52.504;13.438;2023-05-23T09:02:52;12.67;;;7.77;;
71562;SDS011;59391;52.504;13.438;2023-05-23T09:05:18;9.63;;;7.30;;
71562;SDS011;59391;52.504;13.438;2023-05-23T09:07:45;9.70;;;7.20;;
71562;SDS011;59391;52.504;13.438;2023-05-23T09:10:13;11.55;;;7.32;;
71562;SDS011;59391;52.504;13.438;2023-05-23T09:12:44;10.30;;;7.50;;
71562;SDS011;59391;52.504;13.438;2023-05-23T09:15:10;10.77;;;7.30;;
71562;SDS011;59391;52.504;13.438;2023-05-23T09:17:36;13.10;;;7.47;;
71562;SDS011;59391;52.504;13.438;2023-05-23T09:20:03;9.27;;;7.07;;
71562;SDS011;59391;52.504;13.438;2023-05-23T09:22:38;12.35;;;7.50;;
71562;SDS011;59391;52.504;13.438;2023-05-23T09:25:04;11.57;;;7.40;;
71562;SDS011;59391;52.504;13.438;2023-05-23T09:27:31;9.52;;;7.30;;
71562;SDS011;59391;52.504;13.438;2023-05-23T09:29:57;11.20;;;7.40;;
71562;SDS011;59391;52.504;13.438;2023-05-23T09:32:31;11.68;;;7.10;;
71562;SDS011;59391;52.504;13.438;2023-05-23T09:35:03;12.97;;;7.60;;
71562;SDS011;59391;52.504;13.438;2023-05-23T09:37:38;12.50;;;7.68;;
71562;SDS011;59391;52.504;13.438;2023-05-23T09:40:13;13.70;;;7.60;;
71562;SDS011;59391;52.504;13.438;2023-05-23T09:42:46;12.85;;;7.70;;
71562;SDS011;59391;52.504;13.438;2023-05-23T09:45:12;12.20;;;7.33;;
71562;SDS011;59391;52.504;13.438;2023-05-23T09:47:50;11.88;;;7.70;;
71562;SDS011;59391;52.504;13.438;2023-05-23T09:50:17;12.60;;;8.90;;
71562;SDS011;59391;52.504;13.438;2023-05-23T09:52:43;11.85;;;8.00;;
71562;SDS011;59391;52.504;13.438;2023-05-23T09:55:09;12.10;;;7.70;;
71562;SDS011;59391;52.504;13.438;2023-05-23T09:57:34;11.02;;;8.00;;
71562;SDS011;59391;52.504;13.438;2023-05-23T10:00:06;10.68;;;7.80;;
71562;SDS011;59391;52.504;13.438;2023-05-23T10:05:32;11.65;;;7.93;;
71562;SDS011;59391;52.504;13.438;2023-05-23T10:13:20;11.93;;;7.78;;
71562;SDS011;59391;52.504;13.438;2023-05-23T10:15:50;11.73;;;7.40;;
71562;SDS011;59391;52.504;13.438;2023-05-23T10:18:32;12.57;;;7.28;;
71562;SDS011;59391;52.504;13.438;2023-05-23T10:21:08;13.95;;;8.20;;
71562;SDS011;59391;52.504;13.438;2023-05-23T10:23:39;11.05;;;8.43;;
71562;SDS011;59391;52.504;13.438;2023-05-23T10:26:08;12.75;;;8.25;;
71562;SDS011;59391;52.504;13.438;2023-05-23T10:28:35;12.83;;;9.30;;
71562;SDS011;59391;52.504;13.438;2023-05-23T10:31:01;14.45;;;9.50;;
71562;SDS011;59391;52.504;13.438;2023-05-23T10:33:29;12.23;;;9.25;;
71562;SDS011;59391;52.504;13.438;2023-05-23T10:36:24;11.95;;;9.32;;
71562;SDS011;59391;52.504;13.438;2023-05-23T10:39:12;12.30;;;9.35;;
71562;SDS011;59391;52.504;13.438;2023-05-23T10:41:50;10.83;;;8.80;;
71562;SDS011;59391;52.504;13.438;2023-05-23T10:44:26;14.80;;;9.98;;
71562;SDS011;59391;52.504;13.438;2023-05-23T10:46:55;13.55;;;9.68;;
71562;SDS011;59391;52.504;13.438;2023-05-23T10:49:43;13.57;;;10.93;;
71562;SDS011;59391;52.504;13.438;2023-05-23T10:52:16;15.48;;;10.50;;
71562;SDS011;59391;52.504;13.438;2023-05-23T10:54:43;13.53;;;10.57;;
71562;SDS011;59391;52.504;13.438;2023-05-23T10:57:16;16.33;;;11.52;;
71562;SDS011;59391;52.504;13.438;2023-05-23T10:59:44;13.77;;;10.80;;
71562;SDS011;59391;52.504;13.438;2023-05-23T11:02:11;14.98;;;11.48;;
71562;SDS011;59391;52.504;13.438;2023-05-23T11:04:39;17.90;;;13.23;;
71562;SDS011;59391;52.504;13.438;2023-05-23T11:07:07;18.47;;;11.57;;
71562;SDS011;59391;52.504;13.438;2023-05-23T11:12:42;17.70;;;12.45;;
71562;SDS011;59391;52.504;13.438;2023-05-23T11:17:49;16.88;;;12.68;;
71562;SDS011;59391;52.504;13.438;2023-05-23T11:20:18;20.77;;;14.17;;
71562;SDS011;59391;52.504;13.438;2023-05-23T11:23:01;16.77;;;13.35;;
71562;SDS011;59391;52.504;13.438;2023-05-23T11:25:38;19.27;;;14.25;;
71562;SDS011;59391;52.504;13.438;2023-05-23T11:28:06;19.08;;;14.45;;
71562;SDS011;59391;52.504;13.438;2023-05-23T11:30:32;21.77;;;14.43;;
71562;SDS011;59391;52.504;13.438;2023-05-23T11:33:04;22.20;;;14.43;;
71562;SDS011;59391;52.504;13.438;2023-05-23T11:35:46;19.52;;;14.68;;
71562;SDS011;59391;52.504;13.438;2023-05-23T11:38:16;20.83;;;14.85;;
71562;SDS011;59391;52.504;13.438;2023-05-23T11:40:43;20.30;;;15.18;;
71562;SDS011;59391;52.504;13.438;2023-05-23T11:43:12;20.98;;;14.73;;
71562;SDS011;59391;52.504;13.438;2023-05-23T11:45:41;23.40;;;15.37;;
71562;SDS011;59391;52.504;13.438;2023-05-23T11:48:11;21.85;;;15.90;;
71562;SDS011;59391;52.504;13.438;2023-05-23T11:53:18;22.88;;;15.60;;
71562;SDS011;59391;52.504;13.438;2023-05-23T11:55:49;21.55;;;16.10;;
71562;SDS011;59391;52.504;13.438;2023-05-23T11:58:18;22.70;;;15.30;;
71562;SDS011;59391;52.504;13.438;2023-05-23T12:00:45;20.30;;;15.40;;
71562;SDS011;59391;52.504;13.438;2023-05-23T12:03:11;20.63;;;15.70;;
71562;SDS011;59391;52.504;13.438;2023-05-23T12:05:37;22.38;;;16.17;;
71562;SDS011;59391;52.504;13.438;2023-05-23T12:08:03;23.30;;;15.60;;
71562;SDS011;59391;52.504;13.438;2023-05-23T12:10:29;23.98;;;15.63;;
71562;SDS011;59391;52.504;13.438;2023-05-23T12:12:54;23.73;;;15.30;;
71562;SDS011;59391;52.504;13.438;2023-05-23T12:15:24;22.80;;;16.20;;
71562;SDS011;59391;52.504;13.438;2023-05-23T12:17:52;24.58;;;17.17;;
71562;SDS011;59391;52.504;13.438;2023-05-23T12:20:19;23.40;;;17.13;;
71562;SDS011;59391;52.504;13.438;2023-05-23T12:22:46;21.90;;;16.33;;
71562;SDS011;59391;52.504;13.438;2023-05-23T12:25:12;23.60;;;16.38;;
71562;SDS011;59391;52.504;13.438;2023-05-23T12:27:39;22.27;;;15.93;;
71562;SDS011;59391;52.504;13.438;2023-05-23T12:30:14;21.77;;;15.77;;
71562;SDS011;59391;52.504;13.438;2023-05-23T12:32:41;21.05;;;15.25;;
71562;SDS011;59391;52.504;13.438;2023-05-23T12:35:10;22.13;;;15.60;;
71562;SDS011;59391;52.504;13.438;2023-05-23T12:37:38;22.20;;;16.98;;
71562;SDS011;59391;52.504;13.438;2023-05-23T12:40:13;23.42;;;16.73;;
71562;SDS011;59391;52.504;13.438;2023-05-23T12:42:47;23.83;;;16.83;;
71562;SDS011;59391;52.504;13.438;2023-05-23T12:45:32;26.60;;;16.67;;
71562;SDS011;59391;52.504;13.438;2023-05-23T12:48:00;27.33;;;17.00;;
71562;SDS011;59391;52.504;13.438;2023-05-23T12:50:32;25.67;;;16.50;;
71562;SDS011;59391;52.504;13.438;2023-05-23T12:52:58;24.40;;;16.05;;
71562;SDS011;59391;52.504;13.438;2023-05-23T12:55:24;21.97;;;15.30;;
71562;SDS011;59391;52.504;13.438;2023-05-23T12:57:50;21.73;;;14.80;;
71562;SDS011;59391;52.504;13.438;2023-05-23T13:00:16;22.15;;;13.95;;
71562;SDS011;59391;52.504;13.438;2023-05-23T13:02:43;21.60;;;13.73;;
71562;SDS011;59391;52.504;13.438;2023-05-23T13:05:09;18.87;;;13.23;;
71562;SDS011;59391;52.504;13.438;2023-05-23T13:07:34;18.27;;;12.73;;
71562;SDS011;59391;52.504;13.438;2023-05-23T13:10:01;18.53;;;13.57;;
71562;SDS011;59391;52.504;13.438;2023-05-23T13:12:27;21.48;;;14.27;;
71562;SDS011;59391;52.504;13.438;2023-05-23T13:14:53;19.83;;;13.30;;
71562;SDS011;59391;52.504;13.438;2023-05-23T13:17:19;17.87;;;13.07;;
71562;SDS011;59391;52.504;13.438;2023-05-23T13:19:44;18.77;;;12.98;;
71562;SDS011;59391;52.504;13.438;2023-05-23T13:22:11;20.90;;;13.63;;
71562;SDS011;59391;52.504;13.438;2023-05-23T13:24:37;21.38;;;13.30;;
71562;SDS011;59391;52.504;13.438;2023-05-23T13:27:04;24.42;;;15.23;;
71562;SDS011;59391;52.504;13.438;2023-05-23T13:29:31;21.52;;;15.40;;
71562;SDS011;59391;52.504;13.438;2023-05-23T13:31:58;20.33;;;14.82;;
71562;SDS011;59391;52.504;13.438;2023-05-23T13:34:24;23.73;;;16.27;;
71562;SDS011;59391;52.504;13.438;2023-05-23T13:36:52;18.27;;;13.57;;
71562;SDS011;59391;52.504;13.438;2023-05-23T13:39:18;23.25;;;16.25;;
71562;SDS011;59391;52.504;13.438;2023-05-23T13:41:46;23.20;;;15.32;;
71562;SDS011;59391;52.504;13.438;2023-05-23T13:44:13;23.65;;;14.80;;
71562;SDS011;59391;52.504;13.438;2023-05-23T13:46:39;22.57;;;15.53;;
71562;SDS011;59391;52.504;13.438;2023-05-23T13:49:04;22.37;;;15.13;;
71562;SDS011;59391;52.504;13.438;2023-05-23T13:51:30;22.15;;;14.82;;
71562;SDS011;59391;52.504;13.438;2023-05-23T13:53:56;25.60;;;15.40;;
71562;SDS011;59391;52.504;13.438;2023-05-23T13:56:22;21.43;;;14.43;;
71562;SDS011;59391;52.504;13.438;2023-05-23T13:58:48;20.52;;;13.25;;
71562;SDS011;59391;52.504;13.438;2023-05-23T14:01:14;20.70;;;13.65;;
71562;SDS011;59391;52.504;13.438;2023-05-23T14:03:40;19.83;;;14.00;;
71562;SDS011;59391;52.504;13.438;2023-05-23T14:06:06;22.95;;;13.82;;
71562;SDS011;59391;52.504;13.438;2023-05-23T14:08:32;20.77;;;13.40;;
71562;SDS011;59391;52.504;13.438;2023-05-23T14:10:57;21.77;;;13.43;;
71562;SDS011;59391;52.504;13.438;2023-05-23T14:13:23;22.57;;;14.40;;
71562;SDS011;59391;52.504;13.438;2023-05-23T14:15:51;23.83;;;15.17;;
71562;SDS011;59391;52.504;13.438;2023-05-23T14:18:18;25.48;;;15.95;;
71562;SDS011;59391;52.504;13.438;2023-05-23T14:20:43;25.00;;;14.80;;
71562;SDS011;59391;52.504;13.438;2023-05-23T14:23:09;25.97;;;15.87;;
71562;SDS011;59391;52.504;13.438;2023-05-23T14:25:35;27.40;;;15.80;;
71562;SDS011;59391;52.504;13.438;2023-05-23T14:28:00;25.97;;;16.13;;
71562;SDS011;59391;52.504;13.438;2023-05-23T14:30:26;25.70;;;14.88;;
71562;SDS011;59391;52.504;13.438;2023-05-23T14:32:52;24.70;;;15.23;;
71562;SDS011;59391;52.504;13.438;2023-05-23T14:35:18;24.23;;;14.48;;
71562;SDS011;59391;52.504;13.438;2023-05-23T14:37:46;22.27;;;13.48;;
71562;SDS011;59391;52.504;13.438;2023-05-23T14:40:12;24.83;;;15.40;;
71562;SDS011;59391;52.504;13.438;2023-05-23T14:42:38;24.35;;;15.23;;
71562;SDS011;59391;52.504;13.438;2023-05-23T14:45:04;23.92;;;14.60;;